CTSO2: Bird Creek At Catoosa

Data processed at Fri Mar 09 2018 23:31


All information presented herein is the property of the government of the United States of America and may be revised or deleted at any time without prior notice.
Dissemination of this information without the expressed written consent of the Public Affairs Office, Tulsa District U.S. Army Corps of Engineers is strictly prohibited.
These data are gathered electronically and, as presented, have not undergone any form of quality control. These data are not guaranteed to be valid or correct.
Go to home page.
Go to station list.

Upstream stations:

Downstream station:
Previous Day
Next Day
Current Day
    
SHEF ID:       CTSO2     Bird Ck at State Highway 266 nea
STATION TYPE:  

                STAGE  STAGE(2)  RIV-FLOW  WTR-TEMP   DIS-OXY        PH   CONDUCT  BAT-LOAD
                   ft        ft       cfs         F      mg/l        su   umho/cm      volt
              Ccp-Rev   Ccp-Rev   Ccp-Rev   Ccp-Rev   Ccp-Rev   Ccp-Rev   Ccp-Rev   Ccp-Rev
(US/Central)
03/07 00:00      4.40      4.37       261     53.69      9.90      7.92       495     12.65
03/07 01:00      4.44      4.37       274     53.58      9.94      7.94       499     12.65
03/07 02:00      4.41      4.37       264     53.40      9.98      7.94       498     12.65
03/07 03:00      4.47      4.36       284     53.20     10.00      7.95       493     12.65
03/07 04:00      4.40      4.36       261     52.93     10.00      7.95       495     12.57
03/07 05:00      4.43      4.36       271     52.70      9.99      7.95       495     12.57
03/07 06:00      4.42      4.36       267     52.45      9.95      7.94       500     12.57
03/07 07:00      4.46      4.39       280     52.23      9.91      7.93       503     12.57
03/07 08:00      4.47      4.42       284     52.14      9.86      7.92       509     13.05
03/07 09:00      4.52      4.43       300     52.18      9.83      7.90       529     13.76
03/07 10:00      4.53      4.47       304     52.25      9.77      7.88       537     14.48
03/07 11:00      4.64      4.55       343     52.34      9.72      7.87       523     14.08
03/07 12:00      4.72      4.59       373     52.38      9.73      7.86       508     14.00
03/07 13:00      4.73      4.63       376     52.43      9.75      7.85       502     14.00
03/07 14:00      4.72      4.63       373     52.43      9.75      7.86       493     13.92
03/07 15:00      4.72      4.63       373     52.43      9.79      7.87       488     13.05
03/07 16:00      4.74      4.60       380     52.45      9.82      7.88       479     12.97
03/07 17:00      4.71      4.58       369     52.48      9.79      7.87       476     12.89
03/07 18:00      4.74      4.61       380     52.57      9.83      7.87       477     12.89
03/07 19:00      4.73      4.61       376     52.77      9.84      7.85       480     12.81
03/07 20:00      4.76      4.58       388     53.02      9.86      7.84       494     12.81
03/07 21:00      4.73      4.64       376     53.24      9.88      7.83       498     12.81
03/07 22:00      4.78      4.65       396     53.38      9.93      7.84       501     12.73
03/07 23:00      4.76      4.66       388     53.46     10.00      7.86       507     12.73